Time;durP1;ratioP1;P1;durP2;ratioP2;P2;SDS_P1;SDS_P2;PMS_P1;PMS_P2;Temp;Humidity;BMP_temperature;BMP_pressure;BME280_temperature;BME280_humidity;BME280_pressure;Samples;Min_cycle;Max_cycle;Signal;HPM_P1;HPM_P2
2022/12/31 00:02:00;;;;;;;0.00;0.00;;;14.00;99.90;;;;;;5051588;28;20184;-61
2022/12/31 00:04:26;;;;;;;0.00;0.00;;;14.00;99.90;;;;;;5051715;28;20178;-61
2022/12/31 00:06:51;;;;;;;0.00;0.00;;;13.90;99.90;;;;;;5050720;28;20169;-61
2022/12/31 00:09:17;;;;;;;0.00;0.00;;;13.90;99.90;;;;;;5050896;28;20239;-61
2022/12/31 00:11:42;;;;;;;0.00;0.00;;;13.90;99.90;;;;;;5051339;28;20220;-61
2022/12/31 00:14:08;;;;;;;0.00;0.00;;;13.90;99.90;;;;;;5051103;28;20286;-61
2022/12/31 00:16:39;;;;;;;0.00;0.00;;;13.90;99.90;;;;;;5051357;28;20578;-61
2022/12/31 00:19:07;;;;;;;0.00;0.00;;;13.90;99.90;;;;;;5050910;28;20186;-61
2022/12/31 00:21:33;;;;;;;0.00;0.00;;;14.00;99.90;;;;;;5051582;28;20275;-61
2022/12/31 00:24:00;;;;;;;0.00;0.00;;;14.00;99.90;;;;;;5051087;28;20246;-61
2022/12/31 00:26:28;;;;;;;0.00;0.00;;;14.00;99.90;;;;;;5051435;28;20181;-61
2022/12/31 00:28:55;;;;;;;0.00;0.00;;;14.00;99.90;;;;;;5051015;28;20178;-61
2022/12/31 00:31:24;;;;;;;0.00;0.00;;;14.00;99.90;;;;;;5051071;28;20184;-61
2022/12/31 00:33:50;;;;;;;0.08;0.08;;;14.00;99.90;;;;;;5050840;28;20212;-61
2022/12/31 00:36:18;;;;;;;0.00;0.00;;;14.00;99.90;;;;;;5051434;28;20593;-61
2022/12/31 00:38:45;;;;;;;0.00;0.00;;;14.10;99.90;;;;;;5051297;28;20191;-61
2022/12/31 00:41:11;;;;;;;0.00;0.00;;;14.30;99.90;;;;;;5052771;28;20184;-60
2022/12/31 00:43:37;;;;;;;0.00;0.00;;;14.40;99.90;;;;;;5055540;28;20268;-61
2022/12/31 00:46:04;;;;;;;0.00;0.00;;;14.50;99.90;;;;;;5054838;28;20267;-61
2022/12/31 00:48:30;;;;;;;0.00;0.00;;;14.50;99.90;;;;;;5055190;28;20219;-61
2022/12/31 00:50:56;;;;;;;0.00;0.00;;;14.70;99.90;;;;;;5055058;28;20188;-61
2022/12/31 00:53:23;;;;;;;0.00;0.00;;;14.70;99.90;;;;;;5055466;28;20298;-61
2022/12/31 00:55:48;;;;;;;0.00;0.00;;;14.70;99.90;;;;;;5055291;28;20540;-61
2022/12/31 00:58:14;;;;;;;0.00;0.00;;;14.70;99.90;;;;;;5055149;28;20195;-61
2022/12/31 01:00:40;;;;;;;0.00;0.00;;;14.70;99.90;;;;;;5053749;28;20191;-61
2022/12/31 01:03:06;;;;;;;0.00;0.00;;;14.70;99.90;;;;;;5054561;28;20232;-61
2022/12/31 01:05:32;;;;;;;0.00;0.00;;;14.60;99.90;;;;;;5054784;28;20170;-62
2022/12/31 01:07:58;;;;;;;0.00;0.00;;;14.70;99.90;;;;;;5054611;28;20622;-62
2022/12/31 01:13:08;;;;;;;0.00;0.00;;;14.60;99.90;;;;;;5054448;28;20216;-61
2022/12/31 01:15:36;;;;;;;0.00;0.00;;;14.60;99.90;;;;;;5054848;28;20178;-62
2022/12/31 01:18:03;;;;;;;0.00;0.00;;;14.60;99.90;;;;;;5054990;28;20193;-62
2022/12/31 01:20:29;;;;;;;0.00;0.00;;;14.60;99.90;;;;;;5054668;28;20186;-62
2022/12/31 01:22:54;;;;;;;0.00;0.00;;;14.60;99.90;;;;;;5054438;28;20247;-62
2022/12/31 01:25:20;;;;;;;0.00;0.00;;;14.60;99.90;;;;;;5054377;28;20607;-62
2022/12/31 01:27:45;;;;;;;0.00;0.00;;;14.60;99.90;;;;;;5054272;28;20211;-62
2022/12/31 01:30:11;;;;;;;0.00;0.00;;;14.70;99.90;;;;;;5054255;28;20605;-61
2022/12/31 01:32:37;;;;;;;0.00;0.00;;;14.70;99.90;;;;;;5054299;28;20169;-61
2022/12/31 01:35:03;;;;;;;0.00;0.00;;;14.70;99.90;;;;;;5054267;28;20255;-61
2022/12/31 01:37:28;;;;;;;0.00;0.00;;;14.70;99.90;;;;;;5053962;28;20170;-62
2022/12/31 01:39:54;;;;;;;0.10;0.10;;;14.70;99.90;;;;;;5054385;28;20545;-62
2022/12/31 01:42:19;;;;;;;0.00;0.00;;;14.70;99.90;;;;;;5054178;28;20347;-62
2022/12/31 01:44:50;;;;;;;0.00;0.00;;;14.70;99.90;;;;;;5054182;28;20192;-61
2022/12/31 01:47:20;;;;;;;0.00;0.00;;;14.70;99.90;;;;;;5054043;28;20186;-61
2022/12/31 01:50:12;;;;;;;0.00;0.00;;;14.70;99.90;;;;;;5054464;28;20304;-61
2022/12/31 01:52:43;;;;;;;0.00;0.00;;;14.70;99.90;;;;;;5048620;28;20193;-62
2022/12/31 01:55:20;;;;;;;0.00;0.00;;;14.70;99.90;;;;;;5054003;28;20182;-62
2022/12/31 01:57:48;;;;;;;0.00;0.00;;;14.70;99.90;;;;;;5049308;28;20220;-62
2022/12/31 02:00:14;;;;;;;0.00;0.00;;;14.70;99.90;;;;;;5053597;28;20349;-62
2022/12/31 02:02:40;;;;;;;0.00;0.00;;;14.80;99.90;;;;;;5054270;28;20598;-61
2022/12/31 02:05:30;;;;;;;0.00;0.00;;;14.80;99.90;;;;;;5052683;28;20185;-62
2022/12/31 02:07:57;;;;;;;0.00;0.00;;;14.90;99.90;;;;;;5050753;28;20182;-62
2022/12/31 02:10:23;;;;;;;0.00;0.00;;;14.90;99.90;;;;;;5053566;28;20178;-61
2022/12/31 02:12:49;;;;;;;0.00;0.00;;;14.80;99.90;;;;;;5053098;28;20236;-61
2022/12/31 02:15:15;;;;;;;0.00;0.00;;;14.90;99.90;;;;;;5053022;28;20644;-62
2022/12/31 02:18:06;;;;;;;0.00;0.00;;;14.80;99.90;;;;;;5053351;28;20184;-62
2022/12/31 02:20:53;;;;;;;0.00;0.00;;;14.80;99.90;;;;;;5053484;28;20272;-61
2022/12/31 02:23:25;;;;;;;0.00;0.00;;;14.90;99.90;;;;;;5053255;28;20189;-62
2022/12/31 02:26:29;;;;;;;0.00;0.00;;;14.90;99.90;;;;;;5050377;28;20186;-61
2022/12/31 02:29:19;;;;;;;0.00;0.00;;;14.90;99.90;;;;;;5052819;28;20193;-62
2022/12/31 02:31:50;;;;;;;0.00;0.00;;;14.90;99.90;;;;;;5052512;28;20177;-62
2022/12/31 02:34:40;;;;;;;0.00;0.00;;;15.00;99.90;;;;;;5033569;28;20225;-61
2022/12/31 02:37:10;;;;;;;0.00;0.00;;;15.00;99.90;;;;;;5048066;28;20220;-61
2022/12/31 02:39:38;;;;;;;0.00;0.00;;;15.10;99.90;;;;;;5053138;28;20208;-61
2022/12/31 02:42:03;;;;;;;0.00;0.00;;;15.10;99.90;;;;;;5051799;28;20529;-61
2022/12/31 02:44:31;;;;;;;0.00;0.00;;;15.20;99.90;;;;;;5052856;28;20188;-62
2022/12/31 02:47:08;;;;;;;0.00;0.00;;;15.20;99.90;;;;;;5052757;28;20185;-61
2022/12/31 02:49:59;;;;;;;0.00;0.00;;;15.10;99.90;;;;;;5052915;28;20185;-61
2022/12/31 02:52:50;;;;;;;0.00;0.00;;;15.20;99.90;;;;;;5052612;28;20238;-61
2022/12/31 02:55:44;;;;;;;0.00;0.00;;;15.30;99.90;;;;;;5052537;28;20181;-61
2022/12/31 03:02:12;;;;;;;0.00;0.00;;;15.20;99.90;;;;;;5052819;28;20192;-62
2022/12/31 03:04:30;;;;;;;0.00;0.00;;;15.20;99.90;;;;;;5040300;28;20656;-62
2022/12/31 03:06:38;;;;;;;0.00;0.00;;;15.30;99.90;;;;;;5052077;28;20276;-62
2022/12/31 03:09:22;;;;;;;0.00;0.00;;;15.40;99.90;;;;;;5052781;28;20272;-62
2022/12/31 03:14:32;;;;;;;0.00;0.00;;;15.40;99.90;;;;;;5052378;28;20231;-61
2022/12/31 03:16:57;;;;;;;0.00;0.00;;;15.40;99.90;;;;;;5052627;28;20177;-61
2022/12/31 03:22:26;;;;;;;0.00;0.00;;;15.40;99.90;;;;;;5059191;28;20193;-62
2022/12/31 03:27:39;;;;;;;0.00;0.00;;;15.40;99.90;;;;;;5052412;28;20200;-61
2022/12/31 03:30:05;;;;;;;0.00;0.00;;;15.50;99.90;;;;;;5052016;28;20637;-62
2022/12/31 03:32:31;;;;;;;0.00;0.00;;;15.50;99.90;;;;;;5051960;28;20181;-61
2022/12/31 03:34:56;;;;;;;0.00;0.00;;;15.50;99.90;;;;;;5051941;28;20553;-62
2022/12/31 03:37:22;;;;;;;0.00;0.00;;;15.50;99.90;;;;;;5052082;28;20174;-61
2022/12/31 03:39:47;;;;;;;0.00;0.00;;;15.40;99.90;;;;;;5051917;28;20662;-61
2022/12/31 03:42:13;;;;;;;0.00;0.00;;;15.40;99.90;;;;;;5051882;28;20174;-62
2022/12/31 03:44:38;;;;;;;0.00;0.00;;;15.40;99.90;;;;;;5052303;28;20176;-62
2022/12/31 03:47:04;;;;;;;0.00;0.00;;;15.40;99.90;;;;;;5051613;28;20204;-61
2022/12/31 03:49:29;;;;;;;0.00;0.00;;;15.40;99.90;;;;;;5051881;28;20564;-61
2022/12/31 03:51:55;;;;;;;0.00;0.00;;;15.50;99.90;;;;;;5051771;28;20215;-62
2022/12/31 03:54:20;;;;;;;0.00;0.00;;;15.50;99.90;;;;;;5052033;28;20219;-61
2022/12/31 03:56:46;;;;;;;0.00;0.00;;;15.50;99.90;;;;;;5051618;28;20519;-61
2022/12/31 03:59:11;;;;;;;0.00;0.00;;;15.50;99.90;;;;;;5051718;28;20941;-61
2022/12/31 04:01:37;;;;;;;0.00;0.00;;;15.60;99.90;;;;;;5051712;28;20696;-62
2022/12/31 04:04:03;;;;;;;0.00;0.00;;;15.60;99.90;;;;;;5051563;28;20181;-62
2022/12/31 04:06:28;;;;;;;0.00;0.00;;;15.70;99.90;;;;;;5051764;28;20177;-62
2022/12/31 04:08:53;;;;;;;0.00;0.00;;;15.70;99.90;;;;;;5051127;28;20177;-62
2022/12/31 04:11:19;;;;;;;0.00;0.00;;;15.80;99.90;;;;;;5051459;28;20619;-61
2022/12/31 04:13:44;;;;;;;0.00;0.00;;;15.80;99.90;;;;;;5051122;28;20224;-61
2022/12/31 04:16:10;;;;;;;0.00;0.00;;;15.80;99.90;;;;;;5050802;28;20185;-61
2022/12/31 04:18:35;;;;;;;0.00;0.00;;;15.90;99.90;;;;;;5051477;28;20174;-61
2022/12/31 04:21:02;;;;;;;0.00;0.00;;;15.90;99.90;;;;;;5051084;28;20186;-62
2022/12/31 04:23:28;;;;;;;0.00;0.00;;;15.90;99.90;;;;;;5051268;28;20177;-62
2022/12/31 04:25:53;;;;;;;0.00;0.00;;;15.90;99.90;;;;;;5050815;28;20185;-62
2022/12/31 04:28:19;;;;;;;0.00;0.00;;;15.90;99.90;;;;;;5050430;28;20181;-61
2022/12/31 04:30:44;;;;;;;0.00;0.00;;;15.90;99.90;;;;;;5058693;28;20187;-61
2022/12/31 04:33:10;;;;;;;0.00;0.00;;;15.90;99.90;;;;;;5062645;28;20683;-61
2022/12/31 04:35:35;;;;;;;0.00;0.00;;;16.00;99.90;;;;;;5054079;28;20177;-61
2022/12/31 04:38:01;;;;;;;0.00;0.00;;;16.00;99.90;;;;;;5052204;28;20569;-61
2022/12/31 04:40:27;;;;;;;0.00;0.00;;;16.00;99.90;;;;;;5051454;28;20182;-62
2022/12/31 04:42:53;;;;;;;0.00;0.00;;;16.00;99.90;;;;;;5051007;28;20181;-61
2022/12/31 04:45:18;;;;;;;0.00;0.00;;;16.00;99.90;;;;;;5051502;28;20185;-62
2022/12/31 04:47:44;;;;;;;0.00;0.00;;;16.00;99.90;;;;;;5050968;28;20184;-61
2022/12/31 04:50:09;;;;;;;0.00;0.00;;;16.00;99.90;;;;;;5051034;28;20181;-61
2022/12/31 04:52:35;;;;;;;0.00;0.00;;;16.00;99.90;;;;;;5051279;28;20705;-61
2022/12/31 04:55:00;;;;;;;0.00;0.00;;;16.00;99.90;;;;;;5050697;28;20232;-61
2022/12/31 04:57:26;;;;;;;0.00;0.00;;;16.00;99.90;;;;;;5050916;28;20641;-61
2022/12/31 04:59:51;;;;;;;0.00;0.00;;;16.10;99.90;;;;;;5049366;28;20194;-61
2022/12/31 05:02:17;;;;;;;0.00;0.00;;;16.10;99.90;;;;;;5050858;28;20177;-61
2022/12/31 05:04:42;;;;;;;0.00;0.00;;;16.10;99.90;;;;;;5050643;28;20205;-61
2022/12/31 05:07:08;;;;;;;0.00;0.00;;;16.00;99.90;;;;;;5050500;28;20209;-62
2022/12/31 05:09:33;;;;;;;0.00;0.00;;;16.00;99.90;;;;;;5050943;28;20635;-62
2022/12/31 05:11:59;;;;;;;0.00;0.00;;;16.00;99.90;;;;;;5050315;28;20562;-62
2022/12/31 05:14:25;;;;;;;0.00;0.00;;;16.00;99.90;;;;;;5050701;28;20239;-62
2022/12/31 05:16:50;;;;;;;0.00;0.00;;;16.00;99.90;;;;;;5050479;28;20586;-62
2022/12/31 05:19:16;;;;;;;0.00;0.00;;;16.10;99.90;;;;;;5051039;28;20190;-62
2022/12/31 05:21:42;;;;;;;0.00;0.00;;;16.10;99.90;;;;;;5050388;28;20265;-63
2022/12/31 05:24:07;;;;;;;0.00;0.00;;;16.20;99.90;;;;;;5050315;28;20192;-62
2022/12/31 05:26:33;;;;;;;0.00;0.00;;;16.20;99.90;;;;;;5050568;28;20680;-62
2022/12/31 05:28:59;;;;;;;0.00;0.00;;;16.20;99.90;;;;;;5054119;28;20218;-62
2022/12/31 05:31:25;;;;;;;0.00;0.00;;;16.20;99.90;;;;;;5053661;28;20205;-62
2022/12/31 05:33:51;;;;;;;0.00;0.00;;;16.20;99.90;;;;;;5053064;28;20227;-62
2022/12/31 05:36:17;;;;;;;0.00;0.00;;;16.20;99.90;;;;;;5054306;28;20169;-62
2022/12/31 05:38:43;;;;;;;0.00;0.00;;;16.30;99.90;;;;;;5054330;28;20239;-62
2022/12/31 05:41:09;;;;;;;0.00;0.00;;;16.30;99.90;;;;;;5053861;28;20636;-62
2022/12/31 05:43:35;;;;;;;0.00;0.00;;;16.30;99.90;;;;;;5054031;28;20296;-62
2022/12/31 05:46:02;;;;;;;0.00;0.00;;;16.40;99.90;;;;;;5053435;28;20177;-62
2022/12/31 05:48:28;;;;;;;0.00;0.00;;;16.30;99.90;;;;;;5052833;28;20542;-62
2022/12/31 05:50:53;;;;;;;0.10;0.10;;;16.40;99.90;;;;;;5053474;28;20190;-62
2022/12/31 05:53:19;;;;;;;0.00;0.00;;;16.30;99.90;;;;;;5053575;28;20208;-62
2022/12/31 05:55:46;;;;;;;0.00;0.00;;;16.30;99.90;;;;;;5053595;28;20272;-61
2022/12/31 05:58:13;;;;;;;0.00;0.00;;;16.30;99.90;;;;;;5042785;28;20651;-62
2022/12/31 06:00:38;;;;;;;0.00;0.00;;;16.30;99.90;;;;;;5053884;28;20173;-62
2022/12/31 06:03:04;;;;;;;0.00;0.00;;;16.30;99.90;;;;;;5053739;28;20185;-62
2022/12/31 06:05:29;;;;;;;0.00;0.00;;;16.30;99.90;;;;;;5053324;28;20196;-62
2022/12/31 06:07:55;;;;;;;0.00;0.00;;;16.30;99.90;;;;;;5053079;28;20536;-62
2022/12/31 06:10:21;;;;;;;0.03;0.03;;;16.30;99.90;;;;;;5053884;28;20177;-62
2022/12/31 06:12:46;;;;;;;0.00;0.00;;;16.30;99.90;;;;;;5053197;28;20225;-62
2022/12/31 06:15:12;;;;;;;0.00;0.00;;;16.40;99.90;;;;;;5053512;28;20659;-62
2022/12/31 06:17:37;;;;;;;0.00;0.00;;;16.40;99.90;;;;;;5052271;28;20173;-62
2022/12/31 06:20:03;;;;;;;0.00;0.00;;;16.40;99.90;;;;;;5053490;28;20173;-62
2022/12/31 06:22:29;;;;;;;0.00;0.00;;;16.40;99.90;;;;;;5053422;28;20178;-62
2022/12/31 06:24:54;;;;;;;0.00;0.00;;;16.40;99.90;;;;;;5052994;28;20177;-62
2022/12/31 06:27:20;;;;;;;0.00;0.00;;;16.40;99.90;;;;;;5050736;28;20235;-63
2022/12/31 06:29:46;;;;;;;0.00;0.00;;;16.40;99.90;;;;;;5053315;28;20197;-63
2022/12/31 06:32:12;;;;;;;0.00;0.00;;;16.30;99.90;;;;;;5053410;28;20534;-62
2022/12/31 06:34:38;;;;;;;0.00;0.00;;;16.30;99.90;;;;;;5053515;28;20209;-62
2022/12/31 06:37:03;;;;;;;0.00;0.00;;;16.30;99.90;;;;;;5053176;28;20182;-62
2022/12/31 06:39:29;;;;;;;0.00;0.00;;;16.20;99.90;;;;;;5052791;28;20181;-63
2022/12/31 06:41:54;;;;;;;0.00;0.00;;;16.20;99.90;;;;;;5053318;28;20689;-62
2022/12/31 06:44:21;;;;;;;0.00;0.00;;;16.20;99.90;;;;;;5053235;28;20181;-62
2022/12/31 06:46:48;;;;;;;0.00;0.00;;;16.10;99.90;;;;;;5052949;28;20185;-62
2022/12/31 06:49:13;;;;;;;0.00;0.00;;;16.10;99.90;;;;;;5052721;28;20242;-62
2022/12/31 06:51:39;;;;;;;0.00;0.00;;;16.00;99.90;;;;;;5052782;28;20264;-61
2022/12/31 06:54:05;;;;;;;0.00;0.00;;;16.00;99.90;;;;;;5053208;28;20691;-62
2022/12/31 06:56:30;;;;;;;0.10;0.10;;;16.00;99.90;;;;;;5053010;28;20278;-62
2022/12/31 06:58:57;;;;;;;0.00;0.00;;;15.90;99.90;;;;;;5052863;28;20189;-62
2022/12/31 07:01:40;;;;;;;0.00;0.00;;;15.90;99.90;;;;;;5051524;28;20648;-62
2022/12/31 07:04:24;;;;;;;0.00;0.00;;;15.90;99.90;;;;;;5051133;28;20181;-62
2022/12/31 07:07:05;;;;;;;0.00;0.00;;;15.80;99.90;;;;;;5052718;28;20219;-62
2022/12/31 07:09:50;;;;;;;0.00;0.00;;;15.80;99.90;;;;;;5052111;28;20520;-62
2022/12/31 07:12:18;;;;;;;0.00;0.00;;;15.70;99.90;;;;;;5052610;28;20225;-62
2022/12/31 07:15:15;;;;;;;0.00;0.00;;;15.70;99.90;;;;;;5053013;28;20216;-62
2022/12/31 07:18:25;;;;;;;0.00;0.00;;;15.70;99.90;;;;;;5052735;28;20220;-63
2022/12/31 07:20:51;;;;;;;0.00;0.00;;;15.70;99.90;;;;;;5046660;28;20200;-62
2022/12/31 07:23:17;;;;;;;0.00;0.00;;;15.60;99.90;;;;;;5051311;28;20178;-62
2022/12/31 07:25:55;;;;;;;0.00;0.00;;;15.60;99.90;;;;;;5051916;28;20280;-64
2022/12/31 07:28:36;;;;;;;0.00;0.00;;;15.60;99.90;;;;;;5051826;28;20581;-63
2022/12/31 07:31:11;;;;;;;0.00;0.00;;;15.60;99.90;;;;;;5049158;28;20719;-63
2022/12/31 07:34:17;;;;;;;0.00;0.00;;;15.60;99.90;;;;;;5052201;28;20196;-62
2022/12/31 07:36:56;;;;;;;0.00;0.00;;;15.60;99.90;;;;;;5020044;28;20336;-62
2022/12/31 07:39:50;;;;;;;0.00;0.00;;;15.50;99.90;;;;;;5010553;28;20179;-62
2022/12/31 07:42:26;;;;;;;0.00;0.00;;;15.50;99.90;;;;;;5041655;28;20526;-62
2022/12/31 07:45:27;;;;;;;0.00;0.00;;;15.50;99.90;;;;;;5052177;28;20532;-62
2022/12/31 07:47:53;;;;;;;0.00;0.00;;;15.60;99.90;;;;;;5037102;28;20550;-62
2022/12/31 07:50:19;;;;;;;0.00;0.00;;;15.60;99.90;;;;;;5031793;28;20170;-62
2022/12/31 07:52:45;;;;;;;0.00;0.00;;;15.60;99.90;;;;;;5044147;28;20675;-61
2022/12/31 07:55:11;;;;;;;0.00;0.00;;;15.60;99.90;;;;;;5052113;28;20708;-61
2022/12/31 07:58:02;;;;;;;0.00;0.00;;;15.70;99.90;;;;;;5051954;28;20176;-61
2022/12/31 08:00:29;;;;;;;0.00;0.00;;;15.80;99.90;;;;;;5052152;28;20177;-61
2022/12/31 08:03:28;;;;;;;0.00;0.00;;;15.90;99.90;;;;;;5051674;28;20196;-61
2022/12/31 08:06:12;;;;;;;0.00;0.00;;;16.00;99.90;;;;;;5032119;28;20228;-61
2022/12/31 08:08:49;;;;;;;0.00;0.00;;;16.00;99.90;;;;;;5049518;28;20185;-61
2022/12/31 08:11:44;;;;;;;0.00;0.00;;;16.10;99.90;;;;;;5051622;28;20212;-62
2022/12/31 08:14:12;;;;;;;0.00;0.00;;;16.10;99.90;;;;;;5051032;28;20205;-62
2022/12/31 08:16:38;;;;;;;0.00;0.00;;;16.20;99.90;;;;;;5051928;28;20273;-62
2022/12/31 08:19:04;;;;;;;0.00;0.00;;;16.20;99.90;;;;;;5052522;28;20640;-65
2022/12/31 08:21:54;;;;;;;0.00;0.00;;;16.20;99.90;;;;;;5051271;28;20181;-65
2022/12/31 08:24:48;;;;;;;0.00;0.00;;;16.30;99.90;;;;;;5049090;28;20644;-63
2022/12/31 08:27:30;;;;;;;0.00;0.00;;;16.40;99.90;;;;;;5048527;28;20219;-64
2022/12/31 08:30:02;;;;;;;0.00;0.00;;;16.40;99.90;;;;;;5050075;28;20663;-67
2022/12/31 08:32:47;;;;;;;0.00;0.00;;;16.50;99.90;;;;;;5051110;28;20189;-63
2022/12/31 08:35:36;;;;;;;0.00;0.00;;;16.60;99.90;;;;;;5050896;28;20212;-66
2022/12/31 08:38:30;;;;;;;0.00;0.00;;;16.60;99.90;;;;;;5050200;28;20185;-61
2022/12/31 08:41:26;;;;;;;0.00;0.00;;;16.70;99.90;;;;;;5051179;28;20177;-66
2022/12/31 08:44:07;;;;;;;0.00;0.00;;;16.70;99.90;;;;;;5044302;28;20264;-64
2022/12/31 08:47:04;;;;;;;0.00;0.00;;;16.70;99.90;;;;;;5051629;28;20204;-64
2022/12/31 08:49:33;;;;;;;0.00;0.00;;;16.80;99.90;;;;;;5049831;28;20195;-65
2022/12/31 08:51:59;;;;;;;0.00;0.00;;;16.80;99.90;;;;;;5049248;28;20178;-65
2022/12/31 08:54:26;;;;;;;0.00;0.00;;;16.80;99.90;;;;;;5051292;28;20215;-65
2022/12/31 08:57:33;;;;;;;0.00;0.00;;;16.80;99.90;;;;;;5050041;28;20221;-65
2022/12/31 09:00:10;;;;;;;0.00;0.00;;;16.80;99.90;;;;;;5024013;28;20223;-65
2022/12/31 09:03:14;;;;;;;0.00;0.00;;;16.90;99.90;;;;;;5049248;28;20209;-65
2022/12/31 09:06:08;;;;;;;0.00;0.00;;;16.90;99.90;;;;;;5049766;28;20181;-65
2022/12/31 09:08:42;;;;;;;0.00;0.00;;;16.90;99.90;;;;;;5055327;28;20274;-65
2022/12/31 09:11:22;;;;;;;0.00;0.00;;;16.90;99.90;;;;;;5054458;28;20220;-65
2022/12/31 09:14:05;;;;;;;0.00;0.00;;;16.90;99.90;;;;;;5064141;28;20216;-65
2022/12/31 09:17:08;;;;;;;0.00;0.00;;;17.00;99.90;;;;;;5054547;28;20170;-65
2022/12/31 09:19:34;;;;;;;0.00;0.00;;;17.00;99.90;;;;;;5054724;28;20272;-65
2022/12/31 09:21:59;;;;;;;0.00;0.00;;;17.00;99.90;;;;;;5054265;28;20256;-65
2022/12/31 09:24:25;;;;;;;0.00;0.00;;;17.00;99.90;;;;;;5053683;28;20750;-65
2022/12/31 09:27:14;;;;;;;0.10;0.10;;;17.10;99.90;;;;;;5054260;28;20188;-65
2022/12/31 09:30:07;;;;;;;0.00;0.00;;;17.00;99.90;;;;;;5054289;28;20189;-64
2022/12/31 09:33:06;;;;;;;0.00;0.00;;;17.10;99.90;;;;;;5052921;28;20247;-65
2022/12/31 09:35:55;;;;;;;0.00;0.00;;;17.20;99.90;;;;;;5054441;28;20186;-65
2022/12/31 09:38:30;;;;;;;0.00;0.00;;;17.20;99.90;;;;;;5052205;28;20782;-65
2022/12/31 09:41:29;;;;;;;0.00;0.00;;;17.30;99.90;;;;;;5053969;28;20204;-65
2022/12/31 09:44:31;;;;;;;0.00;0.00;;;17.40;99.90;;;;;;5041201;28;20173;-65
2022/12/31 09:47:22;;;;;;;0.00;0.00;;;17.40;99.90;;;;;;5054638;28;20181;-65
2022/12/31 09:50:25;;;;;;;0.00;0.00;;;17.40;99.90;;;;;;5053575;28;20263;-64
2022/12/31 09:53:09;;;;;;;0.00;0.00;;;17.50;99.90;;;;;;5056327;28;20651;-65
2022/12/31 09:56:11;;;;;;;0.00;0.00;;;17.60;99.90;;;;;;5058480;28;20192;-64
2022/12/31 09:58:51;;;;;;;0.00;0.00;;;17.70;99.90;;;;;;5054500;28;20192;-64
2022/12/31 10:01:41;;;;;;;0.00;0.00;;;17.70;99.90;;;;;;5054497;28;20174;-64
2022/12/31 10:04:47;;;;;;;0.00;0.00;;;17.70;99.90;;;;;;5054141;28;20675;-64
2022/12/31 10:07:23;;;;;;;0.00;0.00;;;17.80;99.90;;;;;;5053979;28;20180;-64
2022/12/31 10:10:13;;;;;;;0.00;0.00;;;17.80;99.90;;;;;;5054161;28;20230;-64
2022/12/31 10:13:05;;;;;;;0.00;0.00;;;17.80;99.90;;;;;;5054010;28;20224;-64
2022/12/31 10:15:46;;;;;;;0.00;0.00;;;17.90;99.90;;;;;;5052356;28;20304;-64
2022/12/31 10:18:30;;;;;;;0.00;0.00;;;18.10;99.90;;;;;;5053405;28;20238;-64
2022/12/31 10:21:25;;;;;;;0.00;0.00;;;18.30;99.90;;;;;;5053212;28;20714;-64
2022/12/31 10:24:13;;;;;;;0.00;0.00;;;18.40;99.90;;;;;;5041562;28;20660;-64
2022/12/31 10:27:28;;;;;;;0.10;0.10;;;18.50;99.90;;;;;;5052309;28;20231;-64
2022/12/31 10:30:02;;;;;;;0.00;0.00;;;18.60;99.90;;;;;;5040930;28;20196;-64
2022/12/31 10:32:38;;;;;;;0.00;0.00;;;18.70;99.90;;;;;;5053270;28;20172;-64
2022/12/31 10:35:42;;;;;;;0.00;0.00;;;18.80;99.90;;;;;;5053485;28;20217;-64
2022/12/31 10:38:54;;;;;;;0.00;0.00;;;18.70;99.90;;;;;;5053665;28;20185;-64
2022/12/31 10:41:49;;;;;;;0.00;0.00;;;18.70;99.90;;;;;;5031593;28;20553;-64
2022/12/31 10:44:57;;;;;;;0.00;0.00;;;18.80;99.90;;;;;;5033501;28;20178;-64
2022/12/31 10:47:47;;;;;;;0.00;0.00;;;18.80;99.90;;;;;;5039349;28;20185;-64
2022/12/31 10:50:16;;;;;;;0.00;0.00;;;18.80;99.90;;;;;;5053517;28;20185;-64
2022/12/31 10:53:13;;;;;;;0.00;0.00;;;18.80;99.90;;;;;;5053238;28;20178;-64
2022/12/31 10:56:17;;;;;;;0.00;0.00;;;18.80;99.90;;;;;;5053454;28;20192;-63
2022/12/31 10:59:10;;;;;;;0.00;0.00;;;18.90;99.90;;;;;;5053133;28;20636;-64
2022/12/31 11:02:17;;;;;;;0.00;0.00;;;18.70;99.90;;;;;;5053328;28;20188;-64
2022/12/31 11:05:25;;;;;;;0.00;0.00;;;18.60;99.90;;;;;;5033069;28;20200;-64
2022/12/31 11:08:28;;;;;;;0.00;0.00;;;18.60;99.90;;;;;;5040510;28;20253;-64
2022/12/31 11:11:31;;;;;;;0.00;0.00;;;18.60;99.90;;;;;;5052465;28;20221;-64
2022/12/31 11:14:35;;;;;;;0.00;0.00;;;18.60;99.90;;;;;;5052671;28;20563;-64
2022/12/31 11:17:29;;;;;;;0.00;0.00;;;18.60;99.90;;;;;;5041666;28;20207;-64
2022/12/31 11:20:25;;;;;;;0.00;0.00;;;18.60;99.90;;;;;;5052533;28;20652;-64
2022/12/31 11:23:13;;;;;;;0.00;0.00;;;18.60;99.90;;;;;;5052810;28;20182;-64
2022/12/31 11:26:03;;;;;;;0.00;0.00;;;18.60;99.90;;;;;;5051181;28;20596;-64
2022/12/31 11:28:55;;;;;;;0.00;0.00;;;18.70;99.90;;;;;;5032863;28;20728;-64
2022/12/31 11:31:45;;;;;;;0.00;0.00;;;18.80;99.90;;;;;;5033109;28;20434;-64
2022/12/31 11:34:26;;;;;;;0.00;0.00;;;18.90;99.30;;;;;;5052524;28;20217;-64
2022/12/31 11:36:58;;;;;;;0.00;0.00;;;18.90;99.00;;;;;;5032558;28;20260;-64
2022/12/31 11:39:53;;;;;;;0.00;0.00;;;19.00;99.00;;;;;;5035060;28;20178;-64
2022/12/31 11:42:46;;;;;;;0.00;0.00;;;19.00;99.10;;;;;;5050511;28;20184;-66
2022/12/31 11:45:12;;;;;;;0.00;0.00;;;19.10;99.10;;;;;;5051884;28;20182;-64
2022/12/31 11:47:51;;;;;;;0.00;0.00;;;19.10;98.70;;;;;;5052977;28;20598;-63
2022/12/31 11:51:00;;;;;;;0.00;0.00;;;19.10;98.40;;;;;;5051749;28;20280;-64
2022/12/31 11:53:34;;;;;;;0.00;0.00;;;19.20;98.70;;;;;;5051926;28;20585;-64
2022/12/31 11:56:06;;;;;;;0.00;0.00;;;19.20;98.40;;;;;;5051799;28;20195;-64
2022/12/31 11:58:31;;;;;;;0.00;0.00;;;19.20;98.40;;;;;;5050344;28;20193;-64
2022/12/31 12:01:18;;;;;;;0.00;0.00;;;19.20;98.40;;;;;;5051092;28;20575;-64
2022/12/31 12:03:44;;;;;;;0.00;0.00;;;19.20;98.40;;;;;;5051248;28;20231;-64
2022/12/31 12:06:16;;;;;;;0.00;0.00;;;19.20;98.40;;;;;;5051310;28;20237;-64
2022/12/31 12:08:43;;;;;;;0.00;0.00;;;19.20;98.40;;;;;;5051854;28;20170;-65
2022/12/31 12:11:20;;;;;;;0.00;0.00;;;19.20;98.20;;;;;;5055082;28;20251;-65
2022/12/31 12:13:46;;;;;;;0.00;0.00;;;19.20;98.00;;;;;;5032072;28;20206;-64
2022/12/31 12:16:12;;;;;;;0.00;0.00;;;19.20;98.00;;;;;;5041203;28;20185;-64
2022/12/31 12:18:45;;;;;;;0.00;0.00;;;19.30;98.10;;;;;;5051941;28;20200;-64
2022/12/31 12:21:17;;;;;;;0.00;0.00;;;19.20;97.70;;;;;;5051635;28;20530;-64
2022/12/31 12:24:15;;;;;;;0.00;0.00;;;19.20;98.00;;;;;;5051862;28;20192;-63
2022/12/31 12:26:42;;;;;;;0.00;0.00;;;19.20;97.80;;;;;;5050348;28;20208;-64
2022/12/31 12:29:19;;;;;;;0.00;0.00;;;19.20;97.90;;;;;;5051619;28;20176;-64
2022/12/31 12:32:03;;;;;;;0.00;0.00;;;19.20;97.80;;;;;;5051878;28;20191;-64
2022/12/31 12:34:32;;;;;;;0.00;0.00;;;19.20;97.70;;;;;;5051252;28;20243;-64
2022/12/31 12:36:58;;;;;;;0.00;0.00;;;19.20;97.60;;;;;;5050438;28;20605;-65
2022/12/31 12:39:26;;;;;;;0.00;0.00;;;19.30;97.90;;;;;;5050944;28;20272;-65
2022/12/31 12:42:11;;;;;;;0.00;0.00;;;19.30;97.70;;;;;;5047208;28;20221;-64
2022/12/31 12:44:37;;;;;;;0.00;0.00;;;19.30;97.70;;;;;;5051593;28;20261;-64
2022/12/31 12:47:05;;;;;;;0.00;0.00;;;19.30;97.50;;;;;;5053945;28;20252;-64
2022/12/31 12:49:35;;;;;;;0.00;0.00;;;19.20;97.70;;;;;;5055277;28;20208;-65
2022/12/31 12:52:22;;;;;;;0.00;0.00;;;19.20;97.70;;;;;;5051441;28;20546;-64
2022/12/31 12:55:09;;;;;;;0.00;0.00;;;19.10;97.50;;;;;;5051655;28;20213;-64
2022/12/31 12:57:56;;;;;;;0.00;0.00;;;19.10;97.70;;;;;;5050421;28;20204;-64
2022/12/31 13:00:23;;;;;;;0.00;0.00;;;19.10;97.80;;;;;;5054742;28;20317;-65
2022/12/31 13:03:19;;;;;;;0.00;0.00;;;19.00;97.80;;;;;;5050360;28;20174;-66
2022/12/31 13:06:00;;;;;;;0.00;0.00;;;19.00;97.60;;;;;;5050579;28;20181;-65
2022/12/31 13:08:40;;;;;;;0.00;0.00;;;18.90;97.60;;;;;;5050704;28;20213;-64
2022/12/31 13:11:29;;;;;;;0.00;0.00;;;18.90;97.70;;;;;;5050991;28;20221;-65
2022/12/31 13:14:32;;;;;;;0.00;0.00;;;18.90;97.60;;;;;;5051077;28;20204;-65
2022/12/31 13:17:31;;;;;;;0.00;0.00;;;18.90;97.50;;;;;;5049917;28;20188;-65
2022/12/31 13:20:14;;;;;;;0.00;0.00;;;18.90;97.70;;;;;;5051277;28;20181;-66
2022/12/31 13:22:46;;;;;;;0.00;0.00;;;18.80;97.60;;;;;;5051044;28;20185;-66
2022/12/31 13:25:30;;;;;;;0.00;0.00;;;18.80;97.50;;;;;;5051698;28;20185;-65
2022/12/31 13:28:02;;;;;;;0.00;0.00;;;18.80;97.50;;;;;;5042803;28;20177;-65
2022/12/31 13:30:48;;;;;;;0.00;0.00;;;18.70;97.70;;;;;;5051073;28;20189;-65
2022/12/31 13:33:21;;;;;;;0.30;0.20;;;18.70;97.70;;;;;;5050989;28;20177;-65
2022/12/31 13:36:00;;;;;;;0.00;0.00;;;18.60;97.80;;;;;;5051270;28;20170;-65
2022/12/31 13:38:39;;;;;;;0.00;0.00;;;18.60;97.80;;;;;;5050027;28;20184;-65
2022/12/31 13:41:07;;;;;;;0.00;0.00;;;18.60;98.10;;;;;;5051285;28;20180;-65
2022/12/31 13:43:33;;;;;;;0.00;0.00;;;18.50;98.20;;;;;;5051086;28;20566;-65
2022/12/31 13:46:21;;;;;;;0.00;0.00;;;18.50;98.20;;;;;;5051059;28;20253;-65